createdAt,value
2022-08-28T00:00:49.742Z,99749.69
2022-08-28T00:03:19.176Z,99751.30
2022-08-28T00:05:51.462Z,99749.33
2022-08-28T00:08:22.341Z,99748.86
2022-08-28T00:10:53.988Z,99747.75
2022-08-28T00:13:26.809Z,99749.02
2022-08-28T00:16:01.336Z,99748.09
2022-08-28T00:18:32.884Z,99748.52
2022-08-28T00:21:05.289Z,99742.23
2022-08-28T00:23:42.909Z,99738.13
2022-08-28T00:26:33.716Z,99740.31
2022-08-28T00:29:04.304Z,99737.73
2022-08-28T00:31:36.269Z,99736.91
2022-08-28T00:34:10.512Z,99738.52
2022-08-28T00:36:41.520Z,99740.66
2022-08-28T00:39:38.831Z,99735.05
2022-08-28T00:42:16.633Z,99734.70
2022-08-28T00:44:45.833Z,99732.73
2022-08-28T00:47:19.195Z,99732.81
2022-08-28T00:49:54.033Z,99732.02
2022-08-28T00:52:27.371Z,99729.36
2022-08-28T00:55:11.294Z,99728.91
2022-08-28T00:57:52.833Z,99731.69
2022-08-28T01:00:34.482Z,99733.06
2022-08-28T01:03:06.167Z,99733.38
2022-08-28T01:05:38.579Z,99731.40
2022-08-28T01:08:07.994Z,99734.15
2022-08-28T01:10:37.934Z,99735.16
2022-08-28T01:13:08.083Z,99735.17
2022-08-28T01:15:58.745Z,99738.21
2022-08-28T01:19:15.138Z,99739.23
2022-08-28T01:22:52.285Z,99739.83
2022-08-28T01:25:55.908Z,99738.80
2022-08-28T01:29:12.742Z,99739.45
2022-08-28T01:31:43.405Z,99737.00
2022-08-28T01:34:15.494Z,99735.75
2022-08-28T01:36:44.858Z,99738.98
2022-08-28T01:39:41.419Z,99730.11
2022-08-28T01:42:12.744Z,99732.23
2022-08-28T01:44:46.202Z,99732.67
2022-08-28T01:47:18.311Z,99733.40
2022-08-28T01:49:50.782Z,99732.98
2022-08-28T01:52:26.405Z,99732.00
2022-08-28T01:55:20.532Z,99735.62
2022-08-28T01:58:12.082Z,99732.39
2022-08-28T02:01:18.047Z,99734.64
2022-08-28T02:04:13.539Z,99732.76
2022-08-28T02:06:59.788Z,99740.48
2022-08-28T02:09:34.890Z,99738.46
2022-08-28T02:12:07.135Z,99736.35
2022-08-28T02:14:53.803Z,99734.46
2022-08-28T02:18:43.326Z,99731.00
2022-08-28T02:21:17.517Z,99729.02
2022-08-28T02:24:09.110Z,99733.39
2022-08-28T02:26:46.164Z,99722.86
2022-08-28T02:29:19.044Z,99724.34
2022-08-28T02:31:54.665Z,99719.83
2022-08-28T02:34:27.535Z,99719.03
2022-08-28T02:37:00.118Z,99720.30
2022-08-28T02:40:21.151Z,99722.08
2022-08-28T02:42:52.875Z,99724.44
2022-08-28T02:45:25.550Z,99725.70
2022-08-28T02:49:03.112Z,99726.55
2022-08-28T02:52:51.776Z,99723.70
2022-08-28T02:56:24.899Z,99720.75
2022-08-28T02:59:40.314Z,99717.26
2022-08-28T03:02:45.435Z,99718.50
2022-08-28T03:05:17.606Z,99715.06
2022-08-28T03:07:50.672Z,99718.02
2022-08-28T03:10:22.687Z,99713.59
2022-08-28T03:12:55.183Z,99713.64
2022-08-28T03:15:26.559Z,99710.53
2022-08-28T03:17:56.483Z,99710.72
2022-08-28T03:20:27.928Z,99710.13
2022-08-28T03:23:15.739Z,99712.52
2022-08-28T03:25:47.120Z,99709.89
2022-08-28T03:28:16.819Z,99710.77
2022-08-28T03:30:48.917Z,99712.27
2022-08-28T03:33:18.722Z,99714.30
2022-08-28T03:35:50.754Z,99717.04
2022-08-28T03:38:21.827Z,99720.19
2022-08-28T03:40:54.231Z,99718.34
2022-08-28T03:43:27.764Z,99719.42
2022-08-28T03:46:00.450Z,99714.77
2022-08-28T03:48:45.872Z,99712.75
2022-08-28T03:51:19.111Z,99711.26
2022-08-28T03:54:17.438Z,99711.52
2022-08-28T03:57:07.987Z,99712.02
2022-08-28T04:00:00.932Z,99712.88
2022-08-28T04:02:35.582Z,99713.00
2022-08-28T04:05:28.824Z,99717.58
2022-08-28T04:08:20.106Z,99717.55
2022-08-28T04:11:01.752Z,99722.14
2022-08-28T04:14:12.609Z,99721.59
2022-08-28T04:17:28.137Z,99726.59
2022-08-28T04:20:16.492Z,99727.25
2022-08-28T04:22:58.937Z,99726.55
2022-08-28T04:26:11.768Z,99722.63
2022-08-28T04:28:56.095Z,99734.61
2022-08-28T04:31:54.247Z,99732.73
2022-08-28T04:34:24.993Z,99734.23
2022-08-28T04:36:56.722Z,99731.56
2022-08-28T04:39:31.279Z,99731.45
2022-08-28T04:42:06.610Z,99731.25
2022-08-28T04:44:36.022Z,99727.70
2022-08-28T04:47:06.569Z,99725.98
2022-08-28T04:49:36.732Z,99724.56
2022-08-28T04:52:31.637Z,99728.17
2022-08-28T04:55:02.018Z,99724.46
2022-08-28T04:57:36.623Z,99728.20
2022-08-28T05:00:10.404Z,99723.77
2022-08-28T05:02:44.067Z,99723.42
2022-08-28T05:05:16.056Z,99723.86
2022-08-28T05:07:48.217Z,99725.29
2022-08-28T05:10:18.286Z,99721.75
2022-08-28T05:12:48.135Z,99724.17
2022-08-28T05:15:18.548Z,99728.66
2022-08-28T05:17:48.970Z,99727.55
2022-08-28T05:20:59.298Z,99734.10
2022-08-28T05:23:32.559Z,99733.09
2022-08-28T05:26:10.031Z,99733.27
2022-08-28T05:28:41.789Z,99735.58
2022-08-28T05:31:22.440Z,99738.41
2022-08-28T05:33:53.142Z,99739.29
2022-08-28T05:36:25.865Z,99741.30
2022-08-28T05:39:07.001Z,99739.96
2022-08-28T05:41:40.602Z,99738.98
2022-08-28T05:44:14.541Z,99740.97
2022-08-28T05:46:48.078Z,99742.98
2022-08-28T05:49:24.199Z,99746.14
2022-08-28T05:51:58.935Z,99745.30
2022-08-28T05:54:29.149Z,99739.97
2022-08-28T05:57:02.084Z,99740.55
2022-08-28T06:00:00.022Z,99731.50
2022-08-28T06:03:09.670Z,99738.34
2022-08-28T06:05:41.119Z,99735.93
2022-08-28T06:08:23.310Z,99733.26
2022-08-28T06:10:53.726Z,99734.23
2022-08-28T06:13:25.176Z,99736.33
2022-08-28T06:19:41.305Z,99736.98
2022-08-28T12:14:57.243Z,99736.57
2022-08-28T12:17:49.886Z,99732.14
2022-08-28T12:21:21.789Z,99730.33
2022-08-28T12:24:59.140Z,99731.18
2022-08-28T12:28:27.016Z,99730.09
2022-08-28T12:31:22.807Z,99736.61
2022-08-28T12:34:09.560Z,99732.72
2022-08-28T12:36:42.020Z,99728.83
2022-08-28T12:39:39.535Z,99726.13
2022-08-28T12:42:19.624Z,99725.65
2022-08-28T12:44:51.954Z,99723.73
2022-08-28T12:47:25.278Z,99719.42
2022-08-28T12:49:57.888Z,99718.19
2022-08-28T12:52:29.445Z,99715.96
2022-08-28T12:55:24.600Z,99714.84
2022-08-28T12:57:57.511Z,99713.26
2022-08-28T13:00:33.429Z,99712.42
2022-08-28T13:03:03.639Z,99710.06
2022-08-28T13:05:43.957Z,99707.65
2022-08-28T13:08:14.349Z,99709.44
2022-08-28T13:10:50.974Z,99707.67
2022-08-28T13:13:51.090Z,99703.60
2022-08-28T13:16:47.078Z,99704.14
2022-08-28T13:19:35.182Z,99700.45
2022-08-28T13:22:13.826Z,99698.02
2022-08-28T13:24:46.227Z,99694.11
2022-08-28T13:27:21.405Z,99694.73
2022-08-28T13:29:57.302Z,99693.55
2022-08-28T13:32:40.371Z,99690.19
2022-08-28T13:35:19.679Z,99692.32
2022-08-28T13:38:13.425Z,99689.10
2022-08-28T13:41:13.542Z,99690.83
2022-08-28T13:44:08.861Z,99683.27
2022-08-28T13:46:40.717Z,99685.33
2022-08-28T13:49:11.798Z,99684.65
2022-08-28T13:51:45.865Z,99684.16
2022-08-28T13:54:16.185Z,99681.54
2022-08-28T13:56:47.385Z,99682.29
2022-08-28T13:59:17.972Z,99677.48
2022-08-28T14:02:09.591Z,99682.27
2022-08-28T14:04:42.704Z,99689.04
2022-08-28T14:07:15.877Z,99688.87
2022-08-28T14:09:55.548Z,99685.44
2022-08-28T14:12:33.055Z,99690.95
2022-08-28T14:15:08.908Z,99688.73
2022-08-28T14:18:00.048Z,99685.09
2022-08-28T14:20:29.778Z,99687.20
2022-08-28T14:23:01.338Z,99685.70
2022-08-28T14:25:33.780Z,99688.17
2022-08-28T14:28:09.067Z,99687.04
2022-08-28T14:30:50.519Z,99689.40
2022-08-28T14:33:22.239Z,99687.88
2022-08-28T14:35:53.219Z,99682.37
2022-08-28T14:38:23.758Z,99680.02
2022-08-28T14:40:59.789Z,99678.23
2022-08-28T14:43:31.993Z,99676.08
2022-08-28T14:46:07.260Z,99670.70
2022-08-28T14:48:39.821Z,99667.96
2022-08-28T14:51:09.259Z,99668.23
2022-08-28T14:53:39.918Z,99662.16
2022-08-28T14:56:11.210Z,99667.32
2022-08-28T14:58:42.321Z,99668.34
2022-08-28T15:01:25.468Z,99667.67
2022-08-28T15:04:15.019Z,99665.69
2022-08-28T15:06:47.882Z,99667.95
2022-08-28T15:09:19.245Z,99669.48
2022-08-28T15:11:50.803Z,99674.54
2022-08-28T15:14:20.195Z,99674.92
2022-08-28T15:16:53.904Z,99670.48
2022-08-28T15:19:25.224Z,99672.02
2022-08-28T15:21:56.779Z,99681.11
2022-08-28T15:24:31.824Z,99682.00
2022-08-28T15:27:05.622Z,99682.98
2022-08-28T15:29:36.119Z,99684.58
2022-08-28T15:32:06.521Z,99687.91
2022-08-28T15:34:36.860Z,99683.83
2022-08-28T15:37:10.434Z,99682.94
2022-08-28T15:40:14.711Z,99684.90
2022-08-28T15:42:49.030Z,99688.99
2022-08-28T15:45:21.086Z,99688.36
2022-08-28T15:47:50.837Z,99694.15
2022-08-28T15:50:21.914Z,99698.76
2022-08-28T15:52:54.043Z,99698.52
2022-08-28T15:55:25.612Z,99697.36
2022-08-28T15:57:58.123Z,99701.38
2022-08-28T16:00:30.098Z,99692.48
2022-08-28T16:03:03.921Z,99692.83
2022-08-28T16:05:39.733Z,99692.73
2022-08-28T16:08:13.127Z,99691.91
2022-08-28T16:10:49.777Z,99688.81
2022-08-28T16:13:21.802Z,99684.70
2022-08-28T16:15:52.588Z,99687.00
2022-08-28T16:18:34.904Z,99686.85
2022-08-28T16:21:08.216Z,99684.88
2022-08-28T16:23:50.109Z,99685.88
2022-08-28T16:26:24.579Z,99685.27
2022-08-28T16:28:58.226Z,99685.08
2022-08-28T16:31:28.082Z,99686.86
2022-08-28T16:33:59.161Z,99689.38
2022-08-28T16:36:28.889Z,99693.09
2022-08-28T16:39:04.283Z,99691.01
2022-08-28T16:41:34.587Z,99683.73
2022-08-28T16:44:30.462Z,99690.39
2022-08-28T16:47:02.990Z,99694.19
2022-08-28T16:49:32.788Z,99690.45
2022-08-28T16:52:03.827Z,99699.23
2022-08-28T16:54:36.404Z,99700.56
2022-08-28T16:57:06.122Z,99695.59
2022-08-28T16:59:40.390Z,99696.42
2022-08-28T17:02:13.413Z,99699.59
2022-08-28T17:04:45.208Z,99695.61
2022-08-28T17:07:17.619Z,99701.62
2022-08-28T17:09:49.577Z,99699.67
2022-08-28T17:12:22.327Z,99703.03
2022-08-28T17:14:53.086Z,99703.45
2022-08-28T17:17:24.333Z,99702.17
2022-08-28T17:19:54.827Z,99705.48
2022-08-28T17:22:35.226Z,99706.27
2022-08-28T17:25:15.938Z,99705.51
2022-08-28T17:27:45.765Z,99709.02
2022-08-28T17:30:18.673Z,99708.42
2022-08-28T17:32:49.341Z,99715.80
2022-08-28T17:36:04.941Z,99720.98
2022-08-28T17:39:57.578Z,99726.06
2022-08-28T17:46:38.585Z,99736.20
2022-08-28T17:49:30.080Z,99743.21
2022-08-28T17:52:00.122Z,99735.52
2022-08-28T17:55:04.721Z,99744.48
2022-08-28T17:57:34.787Z,99753.95
2022-08-28T18:00:10.204Z,99760.42
2022-08-28T18:09:23.941Z,99792.00
2022-08-28T18:11:58.105Z,99799.36
2022-08-28T18:14:31.674Z,99804.83
2022-08-28T18:17:03.907Z,99808.23
2022-08-28T18:19:35.134Z,99813.63
2022-08-28T18:22:07.012Z,99810.64
2022-08-28T18:24:39.686Z,99809.17
2022-08-28T18:27:13.888Z,99808.70
2022-08-28T18:29:44.767Z,99809.19
2022-08-28T18:32:15.888Z,99805.05
2022-08-28T18:34:48.854Z,99801.10
2022-08-28T18:37:20.602Z,99799.36
2022-08-28T18:41:06.501Z,99800.53
2022-08-28T18:43:37.533Z,99801.19
2022-08-28T18:46:10.125Z,99804.45
2022-08-28T18:48:42.158Z,99800.50
2022-08-28T18:51:13.216Z,99799.05
2022-08-28T18:53:45.747Z,99795.23
2022-08-28T18:56:17.526Z,99789.61
2022-08-28T19:11:50.846Z,99786.41
2022-08-28T19:14:23.793Z,99785.02
2022-08-28T19:17:01.056Z,99787.79
2022-08-28T19:19:35.755Z,99794.83
2022-08-28T19:22:06.986Z,99798.84
2022-08-28T19:24:36.795Z,99799.13
2022-08-28T19:27:07.525Z,99801.42
2022-08-28T19:29:40.306Z,99804.92
2022-08-28T19:32:11.293Z,99809.72
2022-08-28T19:34:43.080Z,99817.70
2022-08-28T19:37:12.660Z,99822.05
2022-08-28T19:40:56.578Z,99819.81
2022-08-28T19:46:38.219Z,99817.74
2022-08-28T19:49:10.494Z,99822.58
2022-08-28T19:51:41.842Z,99818.39
2022-08-28T19:54:16.379Z,99824.77
2022-08-28T19:56:46.151Z,99836.27
2022-08-28T19:59:18.119Z,99851.23
2022-08-28T20:01:48.491Z,99861.23
2022-08-28T20:04:19.461Z,99883.65
2022-08-28T20:06:49.866Z,99894.91
2022-08-28T20:09:23.747Z,99897.65
2022-08-28T20:12:34.931Z,99905.38
2022-08-28T20:31:01.922Z,99892.57
2022-08-28T20:33:34.861Z,99895.41
2022-08-28T20:36:06.483Z,99902.92
2022-08-28T20:38:45.347Z,99901.95
2022-08-28T20:41:20.621Z,99904.88
2022-08-28T20:43:53.230Z,99916.02
2022-08-28T20:46:30.654Z,99923.98
2022-08-28T20:49:00.991Z,99926.48
2022-08-28T20:51:50.357Z,99921.60
2022-08-28T20:54:37.477Z,99922.92
2022-08-28T20:57:15.767Z,99920.73
2022-08-28T20:59:49.953Z,99909.39
2022-08-28T21:02:22.752Z,99901.92
2022-08-28T21:04:55.398Z,99914.07
2022-08-28T21:07:29.220Z,99927.42
2022-08-28T21:10:06.182Z,99947.48
2022-08-28T21:12:40.765Z,99968.49
2022-08-28T21:15:14.485Z,99978.48
2022-08-28T21:17:48.266Z,99962.41
2022-08-28T21:20:22.290Z,99952.90
2022-08-28T21:22:58.155Z,99957.39
2022-08-28T21:25:29.268Z,99972.20
2022-08-28T21:28:04.281Z,99988.51
2022-08-28T21:30:45.492Z,99996.55
2022-08-28T21:33:15.863Z,100006.75
2022-08-28T21:35:48.439Z,100012.54
2022-08-28T21:38:19.101Z,100018.77
2022-08-28T21:40:50.077Z,100016.30
2022-08-28T21:43:20.459Z,100002.54
2022-08-28T21:46:13.743Z,99996.73
2022-08-28T21:48:51.662Z,99998.40
2022-08-28T21:51:24.830Z,100003.29
2022-08-28T21:53:54.432Z,100004.02
2022-08-28T21:56:27.953Z,100006.61
2022-08-28T21:58:59.266Z,100013.77
2022-08-28T22:01:30.125Z,100005.44
2022-08-28T22:04:01.022Z,99995.34
2022-08-28T22:06:32.183Z,99983.86
2022-08-28T22:09:04.074Z,99978.09
2022-08-28T22:11:34.638Z,99961.34
2022-08-28T22:14:04.663Z,99959.10
2022-08-28T22:16:37.496Z,99961.46
2022-08-28T22:19:06.976Z,99963.36
2022-08-28T22:22:23.632Z,99959.36
2022-08-28T22:24:59.040Z,99964.69
2022-08-28T22:27:32.559Z,99962.52
2022-08-28T22:30:07.164Z,99955.58
2022-08-28T22:32:40.500Z,99953.87
2022-08-28T22:35:13.001Z,99953.69
2022-08-28T22:37:47.666Z,99954.23
2022-08-28T22:40:45.231Z,99952.77
2022-08-28T22:43:19.379Z,99951.69
2022-08-28T22:45:50.378Z,99945.45
2022-08-28T22:48:33.714Z,99938.30
2022-08-28T22:51:10.105Z,99929.70
2022-08-28T22:53:43.633Z,99925.38
2022-08-28T22:56:16.167Z,99920.98
2022-08-28T22:58:50.376Z,99914.98
2022-08-28T23:01:25.845Z,99914.40
2022-08-28T23:03:55.258Z,99912.89
2022-08-28T23:06:28.216Z,99909.77
2022-08-28T23:09:21.428Z,99904.90
2022-08-28T23:12:11.774Z,99911.89
2022-08-28T23:14:48.417Z,99906.55
2022-08-28T23:17:22.288Z,99900.50
2022-08-28T23:20:06.055Z,99896.23
2022-08-28T23:22:36.666Z,99893.25
2022-08-28T23:25:10.036Z,99883.11
2022-08-28T23:27:41.533Z,99875.63
2022-08-28T23:30:16.020Z,99866.12
2022-08-28T23:32:48.044Z,99863.69
2022-08-28T23:35:20.111Z,99867.38
2022-08-28T23:37:52.067Z,99864.19
2022-08-28T23:40:28.141Z,99867.30
2022-08-28T23:43:02.694Z,99870.60
2022-08-28T23:50:20.230Z,99883.23
2022-08-28T23:52:53.710Z,99882.09
2022-08-28T23:55:27.818Z,99881.65
2022-08-28T23:57:58.822Z,99882.41
